Time;durP1;ratioP1;P1;durP2;ratioP2;P2;SDS_P1;SDS_P2;PMS_P1;PMS_P2;Temp;Humidity;BMP_temperature;BMP_pressure;BME280_temperature;BME280_humidity;BME280_pressure;Samples;Min_cycle;Max_cycle;Signal;HPM_P1;HPM_P2
2023/02/07 00:00:19;;;;;;;8.50;5.37;;;;;;;;;;5018287;28;20490;-75
2023/02/07 00:02:49;;;;;;;10.80;6.07;;;;;;;;;;5000861;28;20473;-75
2023/02/07 00:05:17;;;;;;;8.87;5.10;;;;;;;;;;5006108;28;20463;-74
2023/02/07 00:07:44;;;;;;;7.13;5.43;;;;;;;;;;5012812;28;20746;-75
2023/02/07 00:10:15;;;;;;;7.30;5.43;;;;;;;;;;5000028;28;20491;-74
2023/02/07 00:12:43;;;;;;;7.60;5.30;;;;;;;;;;5011896;28;20849;-75
2023/02/07 00:15:12;;;;;;;9.87;6.77;;;;;;;;;;5001752;28;20460;-74
2023/02/07 00:17:43;;;;;;;9.00;5.97;;;;;;;;;;5001023;28;20494;-75
2023/02/07 00:20:13;;;;;;;11.00;5.63;;;;;;;;;;5001383;28;20850;-74
2023/02/07 00:22:40;;;;;;;11.87;5.70;;;;;;;;;;5000088;28;20464;-75
2023/02/07 00:25:08;;;;;;;7.40;5.47;;;;;;;;;;5015172;28;20455;-74
2023/02/07 00:27:36;;;;;;;10.10;6.03;;;;;;;;;;5019304;28;20459;-75
2023/02/07 00:30:05;;;;;;;8.67;4.67;;;;;;;;;;5018945;28;20479;-74
2023/02/07 00:32:35;;;;;;;9.37;5.60;;;;;;;;;;5020869;28;20522;-75
2023/02/07 00:35:03;;;;;;;10.40;6.40;;;;;;;;;;5019514;28;20735;-75
2023/02/07 00:37:35;;;;;;;11.23;7.07;;;;;;;;;;5000686;28;20518;-75
2023/02/07 00:40:03;;;;;;;12.80;6.40;;;;;;;;;;5001021;28;20522;-74
2023/02/07 00:42:30;;;;;;;8.90;6.03;;;;;;;;;;5007192;28;20463;-75
2023/02/07 00:44:58;;;;;;;11.60;5.93;;;;;;;;;;5019467;28;20536;-75
2023/02/07 00:47:26;;;;;;;10.73;6.60;;;;;;;;;;5005103;28;20464;-75
2023/02/07 00:49:54;;;;;;;9.20;6.50;;;;;;;;;;4999864;28;20498;-75
2023/02/07 00:52:24;;;;;;;11.50;6.60;;;;;;;;;;4999963;28;20470;-75
2023/02/07 00:54:53;;;;;;;10.90;6.57;;;;;;;;;;5012351;28;20753;-75
2023/02/07 00:57:21;;;;;;;10.97;7.10;;;;;;;;;;5018517;28;20463;-74
2023/02/07 00:59:49;;;;;;;10.07;6.50;;;;;;;;;;5002736;28;20724;-74
2023/02/07 01:02:19;;;;;;;9.70;6.90;;;;;;;;;;5013499;28;20748;-74
2023/02/07 01:04:47;;;;;;;11.30;6.00;;;;;;;;;;5002073;28;20436;-75
2023/02/07 01:07:19;;;;;;;10.77;6.20;;;;;;;;;;5018271;28;20463;-74
2023/02/07 01:09:46;;;;;;;11.47;6.60;;;;;;;;;;5019102;28;20494;-75
2023/02/07 01:12:15;;;;;;;9.93;6.83;;;;;;;;;;5018741;28;20856;-74
2023/02/07 01:14:43;;;;;;;10.13;6.07;;;;;;;;;;5018937;28;20474;-74
2023/02/07 01:17:32;;;;;;;10.33;6.37;;;;;;;;;;5019444;28;20451;-75
2023/02/07 01:19:59;;;;;;;12.47;6.30;;;;;;;;;;5013767;28;20463;-74
2023/02/07 01:22:28;;;;;;;10.10;6.83;;;;;;;;;;5012672;28;20440;-74
2023/02/07 01:24:55;;;;;;;13.20;6.00;;;;;;;;;;4999620;28;20471;-74
2023/02/07 01:27:25;;;;;;;7.63;5.67;;;;;;;;;;4998544;28;20444;-74
2023/02/07 01:29:53;;;;;;;11.83;5.83;;;;;;;;;;5000659;28;20593;-74
2023/02/07 01:32:21;;;;;;;9.53;6.33;;;;;;;;;;5018145;28;20482;-74
2023/02/07 01:34:48;;;;;;;10.40;7.10;;;;;;;;;;5007840;28;20474;-74
2023/02/07 01:37:17;;;;;;;10.13;6.27;;;;;;;;;;5012203;28;20470;-75
2023/02/07 01:39:47;;;;;;;11.80;6.30;;;;;;;;;;5016506;28;20859;-73
2023/02/07 01:42:15;;;;;;;7.10;5.67;;;;;;;;;;4999275;28;20827;-74
2023/02/07 01:45:01;;;;;;;8.37;6.37;;;;;;;;;;5006266;28;20533;-74
2023/02/07 01:47:34;;;;;;;8.00;5.57;;;;;;;;;;5004198;28;20456;-75
2023/02/07 01:50:02;;;;;;;9.60;6.10;;;;;;;;;;4998863;28;20499;-74
2023/02/07 01:52:32;;;;;;;10.73;6.07;;;;;;;;;;4998787;28;20939;-75
2023/02/07 01:55:03;;;;;;;11.40;6.60;;;;;;;;;;5004141;28;20491;-74
2023/02/07 01:57:31;;;;;;;14.30;6.87;;;;;;;;;;5007749;28;20873;-74
2023/02/07 01:59:59;;;;;;;11.90;6.40;;;;;;;;;;5012698;28;20745;-74
2023/02/07 02:02:28;;;;;;;7.50;6.13;;;;;;;;;;5013896;28;20452;-74
2023/02/07 02:04:58;;;;;;;9.07;5.90;;;;;;;;;;5008329;28;20464;-75
2023/02/07 02:07:26;;;;;;;11.90;6.40;;;;;;;;;;5012289;28;20787;-75
2023/02/07 02:09:58;;;;;;;8.90;6.80;;;;;;;;;;4999630;28;20498;-75
2023/02/07 02:12:30;;;;;;;10.27;7.13;;;;;;;;;;5002025;28;20459;-74
2023/02/07 02:15:06;;;;;;;11.37;7.20;;;;;;;;;;4998536;28;20555;-74
2023/02/07 02:17:43;;;;;;;12.17;8.03;;;;;;;;;;5008562;28;20808;-74
2023/02/07 02:20:29;;;;;;;10.67;6.63;;;;;;;;;;5009059;28;20951;-75
2023/02/07 02:23:07;;;;;;;17.67;8.60;;;;;;;;;;4998405;28;20478;-75
2023/02/07 02:25:50;;;;;;;10.77;6.93;;;;;;;;;;5007722;28;20537;-74
2023/02/07 02:28:30;;;;;;;10.80;7.43;;;;;;;;;;5000951;28;20523;-74
2023/02/07 02:31:30;;;;;;;18.10;9.57;;;;;;;;;;4998325;28;20934;-75
2023/02/07 02:34:11;;;;;;;11.83;7.73;;;;;;;;;;4956563;29;20462;-74
2023/02/07 02:36:41;;;;;;;12.27;7.20;;;;;;;;;;4957699;29;20457;-75
2023/02/07 02:39:14;;;;;;;12.97;7.90;;;;;;;;;;4990056;28;20455;-75
2023/02/07 02:41:45;;;;;;;11.83;7.50;;;;;;;;;;5001057;28;20452;-74
2023/02/07 02:44:14;;;;;;;10.90;6.43;;;;;;;;;;5001326;28;20484;-74
2023/02/07 02:46:42;;;;;;;13.13;6.63;;;;;;;;;;5015469;28;20463;-74
2023/02/07 02:49:16;;;;;;;13.10;8.03;;;;;;;;;;5017824;28;20574;-74
2023/02/07 02:51:43;;;;;;;10.17;7.13;;;;;;;;;;5017682;28;20888;-74
2023/02/07 02:54:30;;;;;;;15.23;9.13;;;;;;;;;;5003869;28;20460;-74
2023/02/07 02:57:15;;;;;;;16.73;9.27;;;;;;;;;;4997653;28;20452;-74
2023/02/07 02:59:52;;;;;;;12.77;8.33;;;;;;;;;;5004051;28;20855;-74
2023/02/07 03:02:25;;;;;;;17.10;10.10;;;;;;;;;;4999377;28;20452;-75
2023/02/07 03:05:07;;;;;;;17.10;10.47;;;;;;;;;;5004483;28;20463;-74
2023/02/07 03:07:43;;;;;;;13.77;9.53;;;;;;;;;;5016177;28;20522;-75
2023/02/07 03:10:14;;;;;;;16.50;8.80;;;;;;;;;;5002049;28;20842;-74
2023/02/07 03:12:44;;;;;;;21.58;10.43;;;;;;;;;;5001108;28;20458;-74
2023/02/07 03:15:16;;;;;;;16.88;10.95;;;;;;;;;;5002790;28;20467;-74
2023/02/07 03:17:50;;;;;;;17.43;10.87;;;;;;;;;;5013815;28;20208;-75
2023/02/07 03:20:21;;;;;;;16.40;10.67;;;;;;;;;;5002372;28;20530;-75
2023/02/07 03:22:51;;;;;;;18.90;11.17;;;;;;;;;;5001691;28;20468;-74
2023/02/07 03:25:19;;;;;;;15.57;9.77;;;;;;;;;;5012340;28;20458;-74
2023/02/07 03:27:48;;;;;;;19.00;12.30;;;;;;;;;;5011640;28;20939;-74
2023/02/07 03:30:17;;;;;;;17.77;12.20;;;;;;;;;;5001023;28;20534;-75
2023/02/07 03:32:47;;;;;;;20.73;11.80;;;;;;;;;;5015936;28;20450;-75
2023/02/07 03:35:17;;;;;;;17.97;11.30;;;;;;;;;;5020600;28;20455;-74
2023/02/07 03:37:48;;;;;;;21.07;12.20;;;;;;;;;;5022124;28;20455;-74
2023/02/07 03:40:16;;;;;;;18.57;12.00;;;;;;;;;;5020042;28;20467;-75
2023/02/07 03:42:47;;;;;;;22.90;11.23;;;;;;;;;;5020891;28;20451;-75
2023/02/07 03:45:17;;;;;;;24.73;12.60;;;;;;;;;;5017023;28;20463;-74
2023/02/07 03:47:50;;;;;;;19.17;12.30;;;;;;;;;;5004319;28;20491;-74
2023/02/07 03:50:18;;;;;;;23.27;13.53;;;;;;;;;;5000814;28;20551;-74
2023/02/07 03:52:47;;;;;;;20.00;11.23;;;;;;;;;;5001029;28;20456;-74
2023/02/07 03:55:15;;;;;;;19.87;11.77;;;;;;;;;;5004595;28;20492;-75
2023/02/07 03:57:43;;;;;;;23.23;11.90;;;;;;;;;;5020195;28;20452;-75
2023/02/07 04:00:11;;;;;;;22.40;12.93;;;;;;;;;;5011101;28;20725;-74
2023/02/07 04:02:39;;;;;;;21.83;12.40;;;;;;;;;;5020005;28;20531;-74
2023/02/07 04:05:07;;;;;;;20.37;11.13;;;;;;;;;;5019404;28;20455;-75
2023/02/07 04:07:35;;;;;;;24.10;12.67;;;;;;;;;;5019818;28;20475;-74
2023/02/07 04:10:07;;;;;;;16.67;10.17;;;;;;;;;;5018212;28;20911;-74
2023/02/07 04:12:40;;;;;;;20.70;12.67;;;;;;;;;;5019942;28;20459;-74
2023/02/07 04:15:08;;;;;;;21.93;12.33;;;;;;;;;;5016827;28;20891;-74
2023/02/07 04:17:36;;;;;;;23.47;12.10;;;;;;;;;;5009495;28;20473;-74
2023/02/07 04:20:06;;;;;;;21.73;12.30;;;;;;;;;;5014997;28;20452;-75
2023/02/07 04:22:33;;;;;;;23.07;12.07;;;;;;;;;;5000627;28;20530;-74
2023/02/07 04:25:01;;;;;;;22.10;13.40;;;;;;;;;;5004346;28;20459;-74
2023/02/07 04:27:30;;;;;;;16.30;10.10;;;;;;;;;;5018478;28;20455;-75
2023/02/07 04:29:58;;;;;;;22.50;11.63;;;;;;;;;;5013333;28;20488;-75
2023/02/07 04:32:28;;;;;;;23.10;11.60;;;;;;;;;;5019197;28;20455;-75
2023/02/07 04:34:55;;;;;;;20.10;12.20;;;;;;;;;;5007457;28;20460;-75
2023/02/07 04:37:23;;;;;;;20.40;12.43;;;;;;;;;;4999721;28;20458;-74
2023/02/07 04:39:51;;;;;;;16.80;10.40;;;;;;;;;;5000247;28;20456;-75
2023/02/07 04:42:18;;;;;;;21.90;12.80;;;;;;;;;;4999642;28;20456;-74
2023/02/07 04:44:48;;;;;;;23.47;12.60;;;;;;;;;;5012369;28;20463;-74
2023/02/07 04:47:15;;;;;;;22.50;11.03;;;;;;;;;;5014039;28;20464;-75
2023/02/07 04:49:43;;;;;;;21.30;12.37;;;;;;;;;;5008583;28;20860;-75
2023/02/07 04:52:29;;;;;;;26.30;10.10;;;;;;;;;;5013752;28;20464;-74
2023/02/07 04:54:57;;;;;;;21.20;10.93;;;;;;;;;;5003382;28;20447;-74
2023/02/07 04:57:26;;;;;;;19.47;11.70;;;;;;;;;;5018174;28;20552;-75
2023/02/07 04:59:58;;;;;;;21.27;10.40;;;;;;;;;;5018547;28;20463;-75
2023/02/07 05:02:25;;;;;;;22.63;11.63;;;;;;;;;;5018238;28;20738;-74
2023/02/07 05:04:55;;;;;;;17.37;11.23;;;;;;;;;;5038855;28;20464;-74
2023/02/07 05:07:31;;;;;;;19.40;10.60;;;;;;;;;;5029100;28;20860;-74
2023/02/07 05:09:58;;;;;;;16.47;9.97;;;;;;;;;;5019242;28;20783;-74
2023/02/07 05:12:26;;;;;;;15.90;10.40;;;;;;;;;;5019224;28;20459;-74
2023/02/07 05:14:56;;;;;;;22.20;12.00;;;;;;;;;;5016459;28;20456;-74
2023/02/07 05:17:29;;;;;;;15.83;9.90;;;;;;;;;;5016143;28;20447;-73
2023/02/07 05:20:05;;;;;;;19.20;11.03;;;;;;;;;;5018840;28;20456;-74
2023/02/07 05:22:33;;;;;;;22.80;11.47;;;;;;;;;;5004811;28;20452;-75
2023/02/07 05:25:08;;;;;;;23.47;11.93;;;;;;;;;;4998738;28;20975;-74
2023/02/07 05:27:46;;;;;;;21.23;11.33;;;;;;;;;;4999622;28;20456;-74
2023/02/07 05:30:18;;;;;;;20.10;12.00;;;;;;;;;;4998848;28;20499;-74
2023/02/07 05:33:10;;;;;;;19.23;11.67;;;;;;;;;;4999177;28;21109;-72
2023/02/07 05:35:39;;;;;;;17.87;11.47;;;;;;;;;;4999598;28;20456;-74
2023/02/07 05:38:09;;;;;;;23.77;11.60;;;;;;;;;;5012541;28;20454;-74
2023/02/07 05:40:37;;;;;;;26.93;12.63;;;;;;;;;;5019927;28;20510;-73
2023/02/07 05:43:05;;;;;;;22.73;12.63;;;;;;;;;;5018706;28;21116;-75
2023/02/07 05:45:34;;;;;;;19.23;11.63;;;;;;;;;;5017915;28;20471;-74
2023/02/07 06:48:44;;;;;;;23.67;13.10;;;;;;;;;;5014688;28;20430;-75
2023/02/07 06:51:14;;;;;;;24.37;13.80;;;;;;;;;;5016310;28;20509;-74
2023/02/07 06:53:45;;;;;;;24.17;14.87;;;;;;;;;;5015379;28;20875;-75
2023/02/07 06:56:16;;;;;;;26.90;16.17;;;;;;;;;;5002646;28;20465;-74
2023/02/07 06:58:44;;;;;;;23.33;14.00;;;;;;;;;;5001690;28;20444;-74
2023/02/07 07:01:12;;;;;;;26.63;14.07;;;;;;;;;;4997173;28;20479;-74
2023/02/07 07:03:40;;;;;;;29.50;15.03;;;;;;;;;;4995576;28;20546;-73
2023/02/07 07:06:07;;;;;;;24.20;15.47;;;;;;;;;;4997164;28;20459;-73
2023/02/07 07:08:37;;;;;;;27.77;12.97;;;;;;;;;;5007164;28;20463;-73
2023/02/07 07:11:08;;;;;;;25.23;14.93;;;;;;;;;;5015274;28;20522;-75
2023/02/07 07:13:35;;;;;;;25.47;15.63;;;;;;;;;;5014318;28;20817;-75
2023/02/07 07:16:03;;;;;;;26.43;15.40;;;;;;;;;;5015591;28;20517;-74
2023/02/07 07:18:31;;;;;;;28.37;15.47;;;;;;;;;;5014614;28;20561;-75
2023/02/07 07:20:59;;;;;;;28.00;15.87;;;;;;;;;;5013219;28;20938;-74
2023/02/07 07:23:27;;;;;;;28.13;14.90;;;;;;;;;;5014028;28;20459;-75
2023/02/07 07:25:57;;;;;;;26.60;14.27;;;;;;;;;;5009364;28;20453;-74
2023/02/07 07:28:26;;;;;;;28.70;14.63;;;;;;;;;;4996367;28;20912;-75
2023/02/07 07:30:54;;;;;;;32.87;16.37;;;;;;;;;;4996279;28;20747;-75
2023/02/07 07:33:22;;;;;;;32.80;16.50;;;;;;;;;;4994987;28;20526;-74
2023/02/07 07:35:49;;;;;;;27.10;15.53;;;;;;;;;;4996539;28;20729;-74
2023/02/07 07:38:17;;;;;;;27.20;15.67;;;;;;;;;;4994891;28;20868;-75
2023/02/07 07:40:46;;;;;;;25.67;15.50;;;;;;;;;;4995387;28;20540;-74
2023/02/07 07:43:21;;;;;;;24.57;14.77;;;;;;;;;;5010096;28;20458;-75
2023/02/07 07:45:54;;;;;;;28.43;16.10;;;;;;;;;;5015568;28;20556;-73
2023/02/07 07:48:22;;;;;;;27.27;15.07;;;;;;;;;;5017087;28;20451;-74
2023/02/07 07:50:52;;;;;;;29.63;15.33;;;;;;;;;;5008201;28;20480;-75
2023/02/07 07:53:20;;;;;;;26.60;14.90;;;;;;;;;;5020016;28;20816;-74
2023/02/07 07:55:53;;;;;;;31.97;17.47;;;;;;;;;;5019086;28;20822;-75
2023/02/07 07:58:47;;;;;;;32.50;16.47;;;;;;;;;;5018621;28;20455;-74
2023/02/07 08:01:15;;;;;;;30.07;17.20;;;;;;;;;;5011858;28;20452;-75
2023/02/07 08:03:55;;;;;;;30.37;15.90;;;;;;;;;;5009655;28;20547;-73
2023/02/07 08:06:47;;;;;;;30.83;17.13;;;;;;;;;;5003372;28;20590;-74
2023/02/07 08:12:46;;;;;;;32.60;18.57;;;;;;;;;;5014601;28;20504;-75
2023/02/07 08:15:31;;;;;;;29.17;16.37;;;;;;;;;;5003802;28;20472;-74
2023/02/07 08:21:26;;;;;;;28.90;16.50;;;;;;;;;;4962949;28;20524;-75
2023/02/07 08:23:54;;;;;;;27.90;15.40;;;;;;;;;;5003715;28;20458;-74
2023/02/07 08:26:44;;;;;;;26.60;16.57;;;;;;;;;;5009621;28;20724;-74
2023/02/07 08:29:17;;;;;;;28.33;16.57;;;;;;;;;;5008401;28;20455;-75
2023/02/07 08:31:47;;;;;;;31.50;17.67;;;;;;;;;;5006208;28;20472;-74
2023/02/07 08:43:24;;;;;;;33.40;17.67;;;;;;;;;;5001583;28;20447;-75
2023/02/07 08:51:53;;;;;;;30.17;16.20;;;;;;;;;;5005844;28;20779;-74
2023/02/07 08:57:51;;;;;;;28.97;17.07;;;;;;;;;;4976034;28;20490;-75
2023/02/07 09:03:41;;;;;;;37.97;21.10;;;;;;;;;;4951421;29;20426;-74
2023/02/07 09:12:29;;;;;;;29.87;16.87;;;;;;;;;;5011390;28;20541;-76
2023/02/07 09:15:21;;;;;;;32.23;16.87;;;;;;;;;;4996592;28;20472;-74
2023/02/07 09:18:40;;;;;;;31.90;18.37;;;;;;;;;;5010087;28;20451;-74
2023/02/07 09:21:46;;;;;;;28.30;15.67;;;;;;;;;;4981909;28;20540;-74
2023/02/07 09:24:31;;;;;;;22.90;14.80;;;;;;;;;;5005592;28;20903;-76
2023/02/07 09:51:24;;;;;;;27.37;14.47;;;;;;;;;;5010119;28;20908;-74
2023/02/07 09:54:15;;;;;;;24.90;15.23;;;;;;;;;;5004116;28;20504;-74
2023/02/07 09:56:46;;;;;;;24.77;14.57;;;;;;;;;;5002294;28;20482;-73
2023/02/07 09:59:23;;;;;;;28.63;14.93;;;;;;;;;;5005607;28;20455;-75
2023/02/07 10:02:01;;;;;;;28.53;15.20;;;;;;;;;;5000325;28;20914;-73
2023/02/07 10:08:06;;;;;;;27.97;13.53;;;;;;;;;;4998398;28;20532;-77
2023/02/07 10:10:48;;;;;;;27.77;16.10;;;;;;;;;;5002686;28;20464;-73
2023/02/07 10:13:42;;;;;;;35.20;21.20;;;;;;;;;;4998751;28;20803;-74
2023/02/07 10:16:22;;;;;;;30.37;17.07;;;;;;;;;;5010770;28;20482;-75
2023/02/07 10:19:11;;;;;;;36.57;20.43;;;;;;;;;;5013031;28;20451;-74
2023/02/07 10:21:45;;;;;;;29.30;17.90;;;;;;;;;;5010290;28;20515;-74
2023/02/07 10:24:34;;;;;;;28.47;15.63;;;;;;;;;;5008097;28;20472;-75
2023/02/07 10:27:17;;;;;;;26.60;15.63;;;;;;;;;;4942857;29;20446;-76
2023/02/07 10:33:01;;;;;;;32.20;19.43;;;;;;;;;;4998218;28;20486;-78
2023/02/07 10:35:39;;;;;;;26.00;15.83;;;;;;;;;;5004166;28;20515;-75
2023/02/07 10:41:34;;;;;;;28.03;16.13;;;;;;;;;;5000787;28;20518;-75
2023/02/07 10:44:35;;;;;;;28.43;16.27;;;;;;;;;;5000571;28;20888;-74
2023/02/07 10:49:58;;;;;;;27.20;14.10;;;;;;;;;;4998711;28;20459;-75
2023/02/07 10:52:59;;;;;;;25.10;13.33;;;;;;;;;;4999313;28;20488;-77
2023/02/07 10:56:02;;;;;;;27.47;14.80;;;;;;;;;;5001188;28;20456;-72
2023/02/07 10:59:27;;;;;;;24.93;14.43;;;;;;;;;;5001128;28;20456;-75
2023/02/07 11:02:06;;;;;;;23.80;13.93;;;;;;;;;;4995333;28;20537;-75
2023/02/07 11:04:41;;;;;;;22.73;13.83;;;;;;;;;;5000715;28;20499;-75
2023/02/07 11:10:32;;;;;;;20.97;13.90;;;;;;;;;;5003208;28;20559;-76
2023/02/07 11:13:13;;;;;;;18.57;12.90;;;;;;;;;;5036947;28;20851;-75
2023/02/07 11:18:59;;;;;;;25.60;16.03;;;;;;;;;;5002968;28;20444;-75
2023/02/07 11:21:47;;;;;;;25.63;15.10;;;;;;;;;;5007332;28;20883;-75
2023/02/07 11:24:42;;;;;;;24.20;14.60;;;;;;;;;;5011390;28;20545;-75
2023/02/07 11:27:20;;;;;;;29.30;15.13;;;;;;;;;;5014594;28;20971;-75
2023/02/07 11:29:54;;;;;;;17.80;11.43;;;;;;;;;;5001046;28;20468;-74
2023/02/07 11:32:37;;;;;;;21.10;13.17;;;;;;;;;;4999437;28;21095;-76
2023/02/07 11:35:11;;;;;;;19.87;12.10;;;;;;;;;;5000575;28;20467;-74
2023/02/07 11:38:02;;;;;;;14.60;10.23;;;;;;;;;;5014478;28;20552;-74
2023/02/07 11:43:32;;;;;;;13.70;9.80;;;;;;;;;;4994606;28;20443;-76
2023/02/07 11:46:10;;;;;;;16.33;9.10;;;;;;;;;;5000980;28;20817;-74
2023/02/07 11:48:43;;;;;;;20.23;11.23;;;;;;;;;;4998985;28;20462;-76
2023/02/07 11:51:34;;;;;;;16.00;9.30;;;;;;;;;;4999895;28;20470;-75
2023/02/07 11:54:21;;;;;;;14.87;10.17;;;;;;;;;;5000662;28;20538;-76
2023/02/07 11:56:58;;;;;;;15.23;10.70;;;;;;;;;;5010381;28;20460;-78
2023/02/07 12:02:59;;;;;;;20.87;11.70;;;;;;;;;;4999011;28;20460;-76
2023/02/07 12:08:56;;;;;;;12.20;8.60;;;;;;;;;;4992198;28;20533;-74
2023/02/07 12:11:57;;;;;;;15.30;8.93;;;;;;;;;;5007914;28;20459;-73
2023/02/07 12:14:30;;;;;;;13.03;8.30;;;;;;;;;;4998194;28;20531;-75
2023/02/07 12:17:06;;;;;;;14.90;8.03;;;;;;;;;;5008596;28;20471;-75
2023/02/07 12:19:45;;;;;;;22.07;14.47;;;;;;;;;;5016990;28;20474;-76
2023/02/07 12:22:16;;;;;;;15.67;9.30;;;;;;;;;;5016599;28;20514;-75
2023/02/07 12:24:50;;;;;;;12.77;7.93;;;;;;;;;;5031240;28;20739;-75
2023/02/07 12:27:29;;;;;;;16.27;10.40;;;;;;;;;;5001985;28;20469;-75
2023/02/07 12:33:01;;;;;;;12.90;7.33;;;;;;;;;;5014409;28;20490;-76
2023/02/07 12:35:43;;;;;;;15.67;9.53;;;;;;;;;;5006879;28;20460;-76
2023/02/07 12:38:23;;;;;;;15.17;8.77;;;;;;;;;;5012452;28;20506;-76
2023/02/07 12:40:58;;;;;;;12.20;8.53;;;;;;;;;;5009344;28;20486;-75
2023/02/07 12:43:30;;;;;;;15.97;9.80;;;;;;;;;;5015112;28;20443;-74
2023/02/07 12:46:11;;;;;;;16.90;9.80;;;;;;;;;;5015591;28;20601;-74
2023/02/07 12:49:11;;;;;;;18.90;11.27;;;;;;;;;;5009476;28;20467;-74
2023/02/07 12:55:07;;;;;;;11.93;8.10;;;;;;;;;;4995282;28;20501;-77
2023/02/07 12:57:44;;;;;;;15.83;9.03;;;;;;;;;;5015001;28;20529;-76
2023/02/07 13:00:15;;;;;;;14.40;9.70;;;;;;;;;;4997146;28;20521;-75
2023/02/07 13:02:55;;;;;;;15.80;7.80;;;;;;;;;;5000954;28;20468;-74
2023/02/07 13:05:42;;;;;;;13.27;8.57;;;;;;;;;;4996679;28;20455;-76
2023/02/07 13:08:49;;;;;;;16.23;11.10;;;;;;;;;;5013199;28;20517;-75
2023/02/07 13:11:22;;;;;;;15.70;10.13;;;;;;;;;;5011103;28;20463;-73
2023/02/07 13:13:56;;;;;;;16.33;7.97;;;;;;;;;;5003931;28;20566;-77
2023/02/07 13:16:27;;;;;;;13.60;8.20;;;;;;;;;;5013512;28;20471;-76
2023/02/07 13:19:03;;;;;;;13.47;8.73;;;;;;;;;;5005774;28;20475;-75
2023/02/07 13:21:42;;;;;;;15.83;10.10;;;;;;;;;;5013871;28;20534;-75
2023/02/07 13:24:19;;;;;;;11.23;7.70;;;;;;;;;;5016579;28;20436;-77
2023/02/07 13:26:56;;;;;;;13.00;10.00;;;;;;;;;;5013605;28;20465;-76
2023/02/07 13:29:45;;;;;;;13.70;9.00;;;;;;;;;;5014975;28;20502;-78
2023/02/07 13:32:31;;;;;;;12.77;7.93;;;;;;;;;;5004194;28;20483;-74
2023/02/07 13:35:04;;;;;;;13.37;7.80;;;;;;;;;;4999156;28;20500;-76
2023/02/07 13:37:37;;;;;;;13.80;8.20;;;;;;;;;;5018583;28;20459;-76
2023/02/07 13:40:12;;;;;;;12.77;7.13;;;;;;;;;;5018234;28;20485;-77
2023/02/07 13:42:49;;;;;;;12.83;7.80;;;;;;;;;;5015387;28;20859;-76
2023/02/07 13:45:23;;;;;;;12.73;8.23;;;;;;;;;;5009963;28;20899;-75
2023/02/07 13:51:27;;;;;;;14.70;8.00;;;;;;;;;;4937582;29;21013;-76
2023/02/07 13:54:08;;;;;;;12.87;8.23;;;;;;;;;;4998357;28;20563;-75
2023/02/07 13:59:39;;;;;;;13.97;8.57;;;;;;;;;;5014192;28;20486;-77
2023/02/07 14:02:22;;;;;;;12.13;8.00;;;;;;;;;;5003115;28;20470;-75
2023/02/07 14:04:55;;;;;;;11.87;7.97;;;;;;;;;;5000058;28;20499;-76
2023/02/07 14:07:28;;;;;;;10.40;6.80;;;;;;;;;;5010156;28;20491;-77
2023/02/07 14:09:59;;;;;;;11.83;8.50;;;;;;;;;;5016665;28;20474;-75
2023/02/07 14:12:31;;;;;;;11.70;8.27;;;;;;;;;;5015458;28;21250;-76
2023/02/07 14:15:23;;;;;;;12.80;8.10;;;;;;;;;;5015103;28;20455;-75
2023/02/07 14:18:07;;;;;;;15.53;9.77;;;;;;;;;;5014840;28;20463;-75
2023/02/07 14:20:51;;;;;;;13.70;9.30;;;;;;;;;;5013903;28;20482;-74
2023/02/07 14:23:25;;;;;;;14.40;8.23;;;;;;;;;;5013882;28;20456;-74
2023/02/07 14:25:58;;;;;;;16.53;10.50;;;;;;;;;;5013719;28;20931;-75
2023/02/07 14:28:38;;;;;;;15.03;8.70;;;;;;;;;;5015045;28;20511;-74
2023/02/07 14:31:16;;;;;;;13.90;9.27;;;;;;;;;;5015712;28;20462;-74
2023/02/07 14:34:05;;;;;;;19.40;11.07;;;;;;;;;;5013913;28;20549;-74
2023/02/07 14:36:59;;;;;;;20.30;10.80;;;;;;;;;;5013278;28;20453;-75
2023/02/07 14:39:38;;;;;;;19.63;11.20;;;;;;;;;;5005974;28;20957;-75
2023/02/07 14:42:19;;;;;;;13.87;9.67;;;;;;;;;;5015360;28;20518;-76
2023/02/07 14:44:49;;;;;;;18.00;10.20;;;;;;;;;;5004443;28;20452;-75
2023/02/07 14:47:36;;;;;;;20.43;11.43;;;;;;;;;;5003148;28;20549;-74
2023/02/07 14:50:10;;;;;;;15.87;10.50;;;;;;;;;;4995996;28;20455;-74
2023/02/07 14:52:51;;;;;;;21.10;11.00;;;;;;;;;;5014210;28;20479;-75
2023/02/07 14:58:27;;;;;;;15.87;11.07;;;;;;;;;;4988669;28;20499;-74
2023/02/07 15:01:10;;;;;;;15.50;10.20;;;;;;;;;;5018700;28;20557;-74
2023/02/07 15:03:39;;;;;;;15.90;9.40;;;;;;;;;;5018675;28;20919;-74
2023/02/07 15:12:27;;;;;;;13.30;10.27;;;;;;;;;;4983066;28;20451;-75
2023/02/07 15:15:01;;;;;;;13.90;10.47;;;;;;;;;;5014557;28;20473;-75
2023/02/07 15:17:47;;;;;;;16.10;9.70;;;;;;;;;;5014538;28;20469;-75
2023/02/07 15:20:25;;;;;;;13.20;9.57;;;;;;;;;;5004033;28;20535;-75
2023/02/07 15:23:11;;;;;;;16.23;10.90;;;;;;;;;;5009917;28;21098;-74
2023/02/07 15:25:46;;;;;;;15.37;9.83;;;;;;;;;;5016438;28;20536;-75
2023/02/07 15:28:30;;;;;;;14.87;9.33;;;;;;;;;;5018265;28;20447;-75
2023/02/07 15:31:00;;;;;;;13.20;8.73;;;;;;;;;;5013974;28;20717;-74
2023/02/07 15:33:42;;;;;;;14.60;8.77;;;;;;;;;;5019455;28;20483;-76
2023/02/07 15:36:29;;;;;;;15.13;9.67;;;;;;;;;;5015219;28;20466;-75
2023/02/07 15:39:00;;;;;;;12.20;8.97;;;;;;;;;;5018236;28;20462;-74
2023/02/07 15:41:44;;;;;;;13.90;9.57;;;;;;;;;;5018601;28;20459;-75
2023/02/07 15:44:25;;;;;;;12.47;8.37;;;;;;;;;;5017435;28;20620;-74
2023/02/07 15:46:58;;;;;;;12.90;8.90;;;;;;;;;;5018275;28;20883;-74
2023/02/07 15:49:26;;;;;;;19.20;11.80;;;;;;;;;;5015401;28;20451;-76
2023/02/07 15:58:11;;;;;;;13.57;10.33;;;;;;;;;;5014232;28;20534;-75
2023/02/07 16:00:51;;;;;;;14.07;10.20;;;;;;;;;;5020980;28;20523;-74
2023/02/07 16:03:27;;;;;;;14.73;8.80;;;;;;;;;;5015842;28;20455;-74
2023/02/07 16:06:16;;;;;;;13.60;8.80;;;;;;;;;;5018864;28;20451;-74
2023/02/07 16:08:45;;;;;;;14.07;8.80;;;;;;;;;;5019008;28;20451;-73
2023/02/07 16:11:20;;;;;;;16.70;9.23;;;;;;;;;;5016350;28;20436;-74
2023/02/07 16:13:56;;;;;;;17.50;10.33;;;;;;;;;;5014319;28;20479;-75
2023/02/07 16:16:28;;;;;;;14.00;9.83;;;;;;;;;;5007212;28;20448;-75
2023/02/07 16:19:23;;;;;;;15.00;9.20;;;;;;;;;;5007440;28;20963;-74
2023/02/07 16:25:20;;;;;;;19.50;8.93;;;;;;;;;;4995200;28;20455;-75
2023/02/07 16:27:50;;;;;;;13.70;8.87;;;;;;;;;;4998322;28;21039;-73
2023/02/07 16:30:24;;;;;;;21.80;10.77;;;;;;;;;;4998651;28;20464;-75
2023/02/07 16:32:59;;;;;;;20.20;10.77;;;;;;;;;;4997672;28;20530;-76
2023/02/07 16:35:49;;;;;;;16.90;10.33;;;;;;;;;;4997238;28;20533;-74
2023/02/07 16:38:18;;;;;;;16.80;10.23;;;;;;;;;;4997654;28;20475;-74
2023/02/07 16:40:46;;;;;;;16.63;10.57;;;;;;;;;;4996867;28;20449;-75
2023/02/07 16:43:26;;;;;;;22.03;11.30;;;;;;;;;;4996424;28;20912;-75
2023/02/07 16:45:58;;;;;;;17.80;11.30;;;;;;;;;;5017013;28;20541;-76
2023/02/07 16:48:27;;;;;;;20.73;12.60;;;;;;;;;;5009029;28;20530;-75
2023/02/07 16:50:56;;;;;;;29.80;14.60;;;;;;;;;;5010467;28;20459;-74
2023/02/07 16:53:25;;;;;;;17.20;12.03;;;;;;;;;;5001978;28;20243;-74
2023/02/07 16:55:53;;;;;;;17.37;11.00;;;;;;;;;;5016640;28;20677;-75
2023/02/07 16:58:26;;;;;;;20.90;12.90;;;;;;;;;;5016139;28;20495;-74
2023/02/07 17:00:54;;;;;;;27.23;14.63;;;;;;;;;;5015709;28;20493;-73
2023/02/07 17:03:22;;;;;;;25.15;15.07;;;;;;;;;;5015471;28;20840;-76
2023/02/07 17:05:59;;;;;;;27.03;15.10;;;;;;;;;;5015350;28;20200;-77
2023/02/07 17:08:29;;;;;;;29.23;17.93;;;;;;;;;;5010209;28;20491;-75
2023/02/07 17:11:23;;;;;;;22.80;13.67;;;;;;;;;;5003355;28;20451;-76
2023/02/07 17:13:52;;;;;;;20.50;12.63;;;;;;;;;;5017251;28;20488;-77
2023/02/07 17:16:51;;;;;;;22.17;12.53;;;;;;;;;;5017075;28;20475;-75
2023/02/07 17:19:24;;;;;;;22.30;13.70;;;;;;;;;;4956496;29;20735;-76
2023/02/07 17:22:03;;;;;;;22.93;13.80;;;;;;;;;;4955855;28;20854;-76
2023/02/07 17:24:37;;;;;;;25.90;13.80;;;;;;;;;;5014012;28;20763;-75
2023/02/07 17:30:12;;;;;;;19.30;10.47;;;;;;;;;;4979243;28;20475;-76
2023/02/07 17:32:44;;;;;;;17.40;11.87;;;;;;;;;;5018416;28;20487;-75
2023/02/07 17:35:38;;;;;;;23.50;14.20;;;;;;;;;;5017880;28;20490;-76
2023/02/07 17:38:48;;;;;;;22.90;13.40;;;;;;;;;;5016533;28;20479;-75
2023/02/07 17:53:33;;;;;;;18.57;11.27;;;;;;;;;;5010498;28;20467;-76
2023/02/07 17:56:07;;;;;;;24.97;13.67;;;;;;;;;;5009024;28;20576;-74
2023/02/07 18:01:57;;;;;;;15.50;10.97;;;;;;;;;;5009905;28;20450;-74
2023/02/07 18:04:27;;;;;;;20.47;12.70;;;;;;;;;;4997898;28;20529;-74
2023/02/07 18:09:59;;;;;;;17.43;11.20;;;;;;;;;;5009184;28;20500;-74
2023/02/07 18:12:37;;;;;;;19.63;12.80;;;;;;;;;;5020124;28;20443;-74
2023/02/07 18:15:09;;;;;;;22.53;13.17;;;;;;;;;;5010138;28;20486;-75
2023/02/07 18:18:09;;;;;;;20.73;13.10;;;;;;;;;;5005908;28;20871;-73
2023/02/07 18:20:51;;;;;;;23.23;12.13;;;;;;;;;;5009374;28;20539;-75
2023/02/07 18:23:23;;;;;;;16.43;9.80;;;;;;;;;;5014415;28;20443;-74
2023/02/07 18:26:03;;;;;;;18.33;10.53;;;;;;;;;;5004934;28;20471;-74
2023/02/07 18:28:35;;;;;;;18.37;11.50;;;;;;;;;;4998147;28;20464;-75
2023/02/07 18:31:28;;;;;;;19.77;12.13;;;;;;;;;;5009030;28;20534;-76